createdAt,value
2017-11-26T00:00:46.308Z,12.22
2017-11-26T00:03:17.858Z,12.24
2017-11-26T00:05:47.057Z,12.26
2017-11-26T00:08:16.153Z,12.31
2017-11-26T00:10:45.152Z,12.32
2017-11-26T00:13:16.102Z,12.38
2017-11-26T00:15:45.853Z,12.45
2017-11-26T00:18:16.097Z,12.52
2017-11-26T00:20:47.991Z,12.45
2017-11-26T00:23:24.209Z,12.47
2017-11-26T00:25:55.089Z,12.47
2017-11-26T00:28:26.691Z,12.51
2017-11-26T00:30:57.803Z,12.55
2017-11-26T00:33:26.894Z,12.57
2017-11-26T00:36:01.604Z,12.49
2017-11-26T00:38:31.875Z,12.51
2017-11-26T00:41:00.925Z,12.55
2017-11-26T00:43:31.963Z,12.55
2017-11-26T00:46:01.984Z,12.57
2017-11-26T00:48:32.609Z,12.56
2017-11-26T00:51:02.530Z,12.57
2017-11-26T00:53:31.456Z,12.54
2017-11-26T00:56:01.578Z,12.57
2017-11-26T00:58:30.701Z,12.57
2017-11-26T01:01:00.554Z,12.45
2017-11-26T01:03:30.293Z,12.43
2017-11-26T01:06:00.284Z,12.42
2017-11-26T01:08:31.117Z,12.40
2017-11-26T01:11:05.406Z,12.42
2017-11-26T01:13:35.259Z,12.46
2017-11-26T01:16:05.311Z,12.44
2017-11-26T01:21:09.009Z,12.51
2017-11-26T01:23:42.162Z,12.53
2017-11-26T01:26:11.440Z,12.49
2017-11-26T01:28:41.711Z,12.50
2017-11-26T01:31:11.727Z,12.59
2017-11-26T01:33:42.845Z,12.56
2017-11-26T01:36:11.961Z,12.62
2017-11-26T01:38:40.956Z,12.65
2017-11-26T01:41:11.798Z,12.60
2017-11-26T01:43:40.928Z,12.60
2017-11-26T01:46:11.514Z,12.55
2017-11-26T01:51:18.005Z,12.57
2017-11-26T01:53:47.921Z,12.61
2017-11-26T01:58:55.963Z,12.70
2017-11-26T02:01:25.034Z,12.65
2017-11-26T02:04:01.979Z,12.68
2017-11-26T02:06:31.118Z,12.66
2017-11-26T02:09:00.173Z,12.71
2017-11-26T02:11:31.048Z,12.76
2017-11-26T02:14:01.316Z,12.67
2017-11-26T02:16:32.513Z,12.68
2017-11-26T02:19:02.573Z,12.69
2017-11-26T02:21:32.616Z,12.68
2017-11-26T02:24:01.821Z,12.64
2017-11-26T02:26:30.735Z,12.66
2017-11-26T02:28:59.691Z,12.59
2017-11-26T02:34:26.898Z,12.63
2017-11-26T02:36:56.917Z,12.56
2017-11-26T02:39:26.735Z,12.55
2017-11-26T02:44:30.635Z,12.36
2017-11-26T02:46:59.608Z,12.43
2017-11-26T02:49:30.460Z,12.42
2017-11-26T02:51:59.687Z,12.38
2017-11-26T02:54:28.585Z,12.37
2017-11-26T02:56:57.589Z,12.34
2017-11-26T02:59:28.286Z,12.36
2017-11-26T03:01:57.197Z,12.38
2017-11-26T03:04:26.142Z,12.24
2017-11-26T03:06:55.080Z,12.16
2017-11-26T03:09:24.025Z,12.13
2017-11-26T03:11:52.942Z,12.11
2017-11-26T03:14:21.922Z,12.11
2017-11-26T03:16:50.867Z,12.09
2017-11-26T03:19:19.730Z,12.14
2017-11-26T03:21:48.630Z,12.20
2017-11-26T03:24:18.405Z,12.18
2017-11-26T03:26:47.309Z,12.20
2017-11-26T03:29:17.269Z,12.24
2017-11-26T03:31:46.139Z,12.23
2017-11-26T03:34:15.019Z,12.21
2017-11-26T03:39:19.442Z,12.12
2017-11-26T03:41:49.719Z,12.07
2017-11-26T03:44:18.997Z,12.04
2017-11-26T03:49:26.492Z,12.01
2017-11-26T03:51:55.503Z,12.03
2017-11-26T03:54:25.622Z,11.99
2017-11-26T03:56:56.247Z,11.98
2017-11-26T03:59:25.433Z,11.99
2017-11-26T04:01:54.446Z,12.02
2017-11-26T04:04:25.178Z,12.05
2017-11-26T04:06:54.158Z,12.02
2017-11-26T04:09:24.146Z,11.99
2017-11-26T04:11:54.951Z,11.96
2017-11-26T04:14:26.863Z,11.95
2017-11-26T04:16:55.839Z,11.92
2017-11-26T04:19:24.741Z,11.90
2017-11-26T04:21:54.585Z,11.87
2017-11-26T04:24:24.790Z,11.84
2017-11-26T04:26:54.350Z,11.83
2017-11-26T04:29:23.409Z,11.82
2017-11-26T04:31:52.453Z,11.78
2017-11-26T04:34:26.864Z,11.77
2017-11-26T04:36:56.070Z,11.72
2017-11-26T04:39:25.159Z,11.74
2017-11-26T04:41:54.357Z,11.66
2017-11-26T04:44:27.099Z,11.60
2017-11-26T04:46:56.909Z,11.50
2017-11-26T04:49:26.041Z,11.51
2017-11-26T04:51:56.029Z,11.52
2017-11-26T04:54:25.529Z,11.52
2017-11-26T04:56:55.384Z,11.56
2017-11-26T04:59:25.201Z,11.54
2017-11-26T05:01:54.294Z,11.54
2017-11-26T05:04:26.580Z,11.57
2017-11-26T05:06:56.435Z,11.56
2017-11-26T05:09:25.475Z,11.59
2017-11-26T05:11:54.576Z,11.53
2017-11-26T05:14:24.653Z,11.54
2017-11-26T05:16:54.515Z,11.54
2017-11-26T05:19:25.368Z,11.53
2017-11-26T05:21:56.548Z,11.50
2017-11-26T05:24:25.739Z,11.55
2017-11-26T05:26:55.967Z,11.59
2017-11-26T05:29:25.210Z,11.64
2017-11-26T05:31:56.200Z,11.59
2017-11-26T05:34:28.204Z,11.54
2017-11-26T05:36:57.161Z,11.61
2017-11-26T05:39:27.283Z,11.56
2017-11-26T05:42:06.513Z,11.55
2017-11-26T05:44:36.426Z,11.60
2017-11-26T05:47:10.745Z,11.57
2017-11-26T05:49:39.838Z,11.52
2017-11-26T05:52:08.835Z,11.56
2017-11-26T05:54:39.567Z,11.63
2017-11-26T05:57:09.587Z,11.76
2017-11-26T05:59:38.682Z,11.89
2017-11-26T06:02:07.779Z,11.97
2017-11-26T06:04:37.839Z,12.11
2017-11-26T06:07:07.690Z,12.23
2017-11-26T06:09:37.741Z,12.33
2017-11-26T06:12:08.228Z,12.46
2017-11-26T06:14:37.461Z,12.72
2017-11-26T06:17:06.663Z,12.83
2017-11-26T06:19:35.880Z,12.92
2017-11-26T06:22:06.039Z,12.99
2017-11-26T06:24:39.227Z,12.91
2017-11-26T06:27:08.268Z,13.01
2017-11-26T06:29:39.025Z,12.95
2017-11-26T06:32:13.703Z,12.96
2017-11-26T06:34:43.307Z,12.91
2017-11-26T06:37:16.297Z,12.83
2017-11-26T06:39:46.707Z,12.85
2017-11-26T06:42:15.806Z,12.87
2017-11-26T06:44:46.895Z,12.90
2017-11-26T06:47:16.044Z,12.95
2017-11-26T06:49:45.141Z,12.95
2017-11-26T06:52:16.049Z,12.98
2017-11-26T06:54:46.409Z,12.95
2017-11-26T06:57:17.841Z,12.93
2017-11-26T06:59:46.750Z,12.90
2017-11-26T07:02:16.795Z,12.89
2017-11-26T07:04:45.771Z,12.88
2017-11-26T07:07:14.818Z,12.79
2017-11-26T07:09:43.948Z,12.79
2017-11-26T07:12:14.904Z,12.80
2017-11-26T07:14:44.702Z,12.78
2017-11-26T07:17:13.900Z,12.90
2017-11-26T07:19:43.304Z,12.88
2017-11-26T07:22:13.936Z,12.85
2017-11-26T07:24:44.418Z,12.79
2017-11-26T07:27:14.227Z,12.72
2017-11-26T07:29:44.538Z,12.71
2017-11-26T07:32:14.617Z,12.76
2017-11-26T07:34:43.598Z,12.83
2017-11-26T07:37:12.510Z,12.74
2017-11-26T07:39:42.264Z,12.88
2017-11-26T07:42:11.173Z,12.88
2017-11-26T07:44:40.160Z,12.92
2017-11-26T07:47:09.046Z,13.05
2017-11-26T07:49:37.916Z,13.14
2017-11-26T07:52:06.759Z,13.10
2017-11-26T07:54:35.754Z,13.18
2017-11-26T07:57:04.650Z,13.27
2017-11-26T07:59:33.788Z,13.33
2017-11-26T08:02:03.632Z,13.40
2017-11-26T08:04:32.455Z,13.44
2017-11-26T08:07:01.450Z,13.51
2017-11-26T08:09:34.425Z,13.55
2017-11-26T08:12:03.727Z,13.63
2017-11-26T08:14:32.824Z,13.58
2017-11-26T08:17:02.907Z,13.57
2017-11-26T08:19:31.899Z,13.68
2017-11-26T08:22:00.778Z,13.72
2017-11-26T08:24:29.868Z,13.80
2017-11-26T08:26:58.692Z,13.93
2017-11-26T08:29:32.505Z,13.97
2017-11-26T08:32:07.494Z,13.97
2017-11-26T08:34:41.416Z,13.94
2017-11-26T08:37:11.315Z,13.94
2017-11-26T08:39:40.293Z,13.73
2017-11-26T08:42:09.255Z,13.68
2017-11-26T08:44:38.255Z,13.75
2017-11-26T08:47:07.236Z,13.78
2017-11-26T08:49:39.218Z,13.77
2017-11-26T08:52:08.147Z,13.82
2017-11-26T08:54:37.251Z,13.82
2017-11-26T08:59:40.114Z,13.65
2017-11-26T09:02:09.913Z,13.80
2017-11-26T09:07:15.019Z,13.96
2017-11-26T09:09:44.928Z,14.05
2017-11-26T09:12:14.028Z,14.16
2017-11-26T09:14:45.380Z,14.30
2017-11-26T09:17:14.684Z,14.42
2017-11-26T09:19:43.865Z,14.40
2017-11-26T09:22:13.084Z,14.21
2017-11-26T09:24:42.270Z,14.39
2017-11-26T09:27:11.956Z,14.43
2017-11-26T09:29:41.233Z,14.42
2017-11-26T09:32:10.277Z,14.25
2017-11-26T09:34:39.509Z,14.31
2017-11-26T09:37:11.442Z,14.27
2017-11-26T09:39:40.787Z,14.30
2017-11-26T09:42:10.717Z,14.34
2017-11-26T09:44:39.696Z,14.28
2017-11-26T09:47:11.881Z,14.30
2017-11-26T09:49:43.558Z,14.30
2017-11-26T09:52:13.230Z,14.26
2017-11-26T09:54:43.614Z,14.16
2017-11-26T09:57:14.051Z,14.27
2017-11-26T09:59:43.195Z,14.49
2017-11-26T10:02:12.891Z,14.55
2017-11-26T10:04:43.056Z,14.52
2017-11-26T10:07:12.831Z,14.52
2017-11-26T10:09:42.020Z,14.45
2017-11-26T10:12:12.105Z,14.43
2017-11-26T10:14:41.408Z,14.21
2017-11-26T10:17:12.231Z,13.95
2017-11-26T10:19:41.442Z,13.87
2017-11-26T10:22:11.360Z,13.79
2017-11-26T10:24:42.255Z,13.80
2017-11-26T10:27:13.943Z,13.69
2017-11-26T10:29:44.829Z,13.77
2017-11-26T10:32:15.822Z,13.97
2017-11-26T10:34:44.863Z,14.15
2017-11-26T10:37:14.626Z,14.33
2017-11-26T10:39:46.701Z,14.51
2017-11-26T10:42:15.922Z,14.58
2017-11-26T10:44:45.067Z,14.55
2017-11-26T10:47:14.402Z,14.51
2017-11-26T10:49:44.144Z,14.30
2017-11-26T10:52:14.324Z,14.34
2017-11-26T10:54:45.341Z,14.35
2017-11-26T10:57:15.124Z,14.12
2017-11-26T10:59:45.361Z,13.76
2017-11-26T11:02:17.886Z,13.87
2017-11-26T11:04:47.988Z,13.93
2017-11-26T11:07:17.343Z,13.88
2017-11-26T11:09:47.630Z,13.70
2017-11-26T11:12:17.791Z,13.57
2017-11-26T11:14:47.044Z,13.44
2017-11-26T11:17:17.296Z,13.41
2017-11-26T11:19:46.361Z,13.49
2017-11-26T11:22:16.387Z,13.60
2017-11-26T11:24:45.678Z,13.53
2017-11-26T11:27:17.740Z,13.31
2017-11-26T11:29:47.918Z,13.42
2017-11-26T11:32:18.763Z,13.53
2017-11-26T11:34:47.976Z,13.54
2017-11-26T11:37:17.814Z,13.49
2017-11-26T11:39:47.685Z,13.65
2017-11-26T11:42:16.896Z,13.79
2017-11-26T11:47:19.886Z,13.75
2017-11-26T11:49:49.022Z,13.74
2017-11-26T11:52:19.153Z,13.84
2017-11-26T11:54:48.698Z,13.92
2017-11-26T11:57:18.365Z,13.70
2017-11-26T11:59:51.304Z,13.71
2017-11-26T12:02:20.515Z,13.65
2017-11-26T12:04:50.465Z,13.64
2017-11-26T12:07:19.720Z,13.54
2017-11-26T12:09:49.842Z,13.52
2017-11-26T12:12:19.038Z,13.25
2017-11-26T12:14:48.253Z,13.36
2017-11-26T12:17:17.566Z,13.58
2017-11-26T12:19:48.971Z,13.74
2017-11-26T12:22:19.977Z,13.83
2017-11-26T12:24:49.982Z,13.73
2017-11-26T12:27:20.168Z,13.62
2017-11-26T12:29:50.240Z,13.38
2017-11-26T12:32:22.501Z,13.43
2017-11-26T12:34:52.786Z,13.55
2017-11-26T12:37:22.866Z,13.16
2017-11-26T12:39:54.202Z,13.20
2017-11-26T12:42:23.496Z,13.26
2017-11-26T12:44:53.526Z,13.30
2017-11-26T12:49:58.260Z,13.46
2017-11-26T12:52:47.945Z,13.53
2017-11-26T12:55:19.234Z,13.39
2017-11-26T12:57:49.293Z,13.46
2017-11-26T13:00:18.631Z,13.36
2017-11-26T13:02:48.160Z,13.43
2017-11-26T13:07:53.009Z,13.27
2017-11-26T13:10:22.423Z,13.20
2017-11-26T13:12:53.962Z,13.29
2017-11-26T13:15:24.120Z,13.19
2017-11-26T13:17:53.593Z,13.25
2017-11-26T13:20:25.770Z,13.31
2017-11-26T13:25:30.674Z,13.29
2017-11-26T13:28:00.533Z,13.37
2017-11-26T13:30:29.716Z,13.50
2017-11-26T13:33:00.368Z,13.56
2017-11-26T13:35:31.187Z,13.61
2017-11-26T13:38:02.912Z,13.76
2017-11-26T13:40:33.118Z,13.84
2017-11-26T13:43:03.497Z,13.82
2017-11-26T13:45:32.859Z,13.81
2017-11-26T13:48:03.171Z,13.68
2017-11-26T13:50:34.019Z,13.71
2017-11-26T13:53:03.101Z,13.64
2017-11-26T13:55:33.269Z,13.57
2017-11-26T13:58:03.414Z,13.54
2017-11-26T14:00:33.591Z,13.61
2017-11-26T14:03:04.693Z,13.51
2017-11-26T14:05:34.110Z,13.54
2017-11-26T14:08:03.484Z,13.53
2017-11-26T14:10:33.384Z,13.46
2017-11-26T14:13:05.463Z,13.50
2017-11-26T14:15:37.662Z,13.49
2017-11-26T14:18:07.812Z,13.56
2017-11-26T14:20:36.884Z,13.55
2017-11-26T14:23:07.786Z,13.50
2017-11-26T14:25:38.222Z,13.50
2017-11-26T14:28:09.188Z,13.51
2017-11-26T14:30:39.299Z,13.49
2017-11-26T14:33:08.405Z,13.50
2017-11-26T14:35:40.240Z,13.49
2017-11-26T14:38:09.481Z,13.45
2017-11-26T14:40:38.708Z,13.46
2017-11-26T14:43:08.370Z,13.44
2017-11-26T14:45:37.510Z,13.40
2017-11-26T14:48:06.864Z,13.39
2017-11-26T14:50:38.002Z,13.37
2017-11-26T14:53:08.234Z,13.35
2017-11-26T14:55:40.920Z,13.35
2017-11-26T14:58:11.751Z,13.36
2017-11-26T15:00:43.948Z,13.36
2017-11-26T15:03:14.876Z,13.32
2017-11-26T15:05:46.004Z,13.28
2017-11-26T15:08:16.061Z,13.27
2017-11-26T15:10:54.234Z,13.27
2017-11-26T15:13:25.183Z,13.25
2017-11-26T15:15:54.680Z,13.25
2017-11-26T15:18:24.182Z,13.28
2017-11-26T15:20:53.367Z,13.23
2017-11-26T15:25:57.905Z,13.22
2017-11-26T15:28:27.562Z,13.22
2017-11-26T15:30:57.617Z,13.20
2017-11-26T15:33:26.678Z,13.23
2017-11-26T15:35:56.710Z,13.25
2017-11-26T15:38:28.627Z,13.23
2017-11-26T15:40:58.026Z,13.15
2017-11-26T15:43:27.227Z,13.15
2017-11-26T15:45:59.290Z,13.16
2017-11-26T15:48:29.101Z,13.02
2017-11-26T15:50:59.151Z,13.07
2017-11-26T15:53:29.136Z,13.09
2017-11-26T15:56:00.119Z,13.04
2017-11-26T15:58:30.576Z,12.95
2017-11-26T16:00:59.814Z,12.84
2017-11-26T16:03:29.837Z,12.90
2017-11-26T16:06:04.686Z,12.96
2017-11-26T16:08:33.961Z,13.00
2017-11-26T16:11:03.364Z,12.96
2017-11-26T16:13:33.519Z,12.97
2017-11-26T16:16:03.699Z,12.85
2017-11-26T16:18:38.528Z,12.90
2017-11-26T16:21:08.597Z,12.84
2017-11-26T16:23:38.044Z,12.78
2017-11-26T16:26:07.355Z,12.73
2017-11-26T16:28:36.660Z,12.70
2017-11-26T16:31:06.001Z,12.67
2017-11-26T16:33:35.306Z,12.56
2017-11-26T16:36:05.988Z,12.61
2017-11-26T16:38:36.008Z,12.55
2017-11-26T16:41:05.370Z,12.49
2017-11-26T16:43:35.535Z,12.38
2017-11-26T16:46:05.658Z,12.27
2017-11-26T16:48:34.845Z,12.14
2017-11-26T16:51:04.098Z,12.06
2017-11-26T16:53:33.386Z,11.90
2017-11-26T16:56:03.514Z,11.86
2017-11-26T16:58:32.775Z,11.74
2017-11-26T17:01:02.073Z,11.68
2017-11-26T17:03:33.981Z,11.64
2017-11-26T17:06:03.356Z,11.59
2017-11-26T17:08:32.372Z,11.56
2017-11-26T17:11:01.584Z,11.42
2017-11-26T17:13:30.767Z,11.45
2017-11-26T17:15:59.865Z,11.37
2017-11-26T17:18:29.122Z,11.29
2017-11-26T17:20:58.219Z,11.26
2017-11-26T17:23:28.610Z,11.21
2017-11-26T17:28:32.894Z,11.22
2017-11-26T17:31:02.176Z,11.20
2017-11-26T17:33:31.991Z,11.10
2017-11-26T17:36:01.451Z,11.08
2017-11-26T17:38:30.590Z,11.08
2017-11-26T17:41:00.405Z,11.08
2017-11-26T17:43:29.831Z,11.07
2017-11-26T17:46:02.081Z,11.07
2017-11-26T17:48:31.278Z,11.05
2017-11-26T17:51:01.444Z,11.02
2017-11-26T17:53:31.784Z,11.04
2017-11-26T17:56:01.025Z,11.00
2017-11-26T17:58:30.124Z,10.97
2017-11-26T18:01:00.181Z,10.98
2017-11-26T18:03:30.240Z,10.95
2017-11-26T18:05:59.351Z,10.94
2017-11-26T18:08:28.876Z,10.96
2017-11-26T18:10:58.916Z,10.99
2017-11-26T18:13:29.460Z,10.98
2017-11-26T18:15:58.675Z,11.03
2017-11-26T18:18:28.378Z,11.08
2017-11-26T18:20:58.843Z,11.11
2017-11-26T18:23:28.146Z,11.17
2017-11-26T18:25:57.480Z,11.21
2017-11-26T18:28:27.498Z,11.25
2017-11-26T18:30:57.440Z,11.29
2017-11-26T18:33:26.846Z,11.40
2017-11-26T18:35:56.130Z,11.47
2017-11-26T18:38:26.232Z,11.51
2017-11-26T18:40:55.881Z,11.53
2017-11-26T18:43:26.049Z,11.64
2017-11-26T18:45:55.270Z,11.64
2017-11-26T18:48:24.515Z,11.61
2017-11-26T18:50:56.246Z,11.57
2017-11-26T18:53:25.688Z,11.48
2017-11-26T18:55:55.219Z,11.34
2017-11-26T18:58:27.588Z,11.26
2017-11-26T19:00:58.226Z,11.13
2017-11-26T19:03:28.533Z,11.09
2017-11-26T19:05:58.535Z,11.07
2017-11-26T19:08:28.305Z,11.00
2017-11-26T19:10:57.634Z,10.96
2017-11-26T19:13:27.112Z,11.00
2017-11-26T19:15:56.200Z,11.00
2017-11-26T19:18:27.212Z,10.89
2017-11-26T19:20:57.005Z,10.84
2017-11-26T19:23:26.107Z,10.78
2017-11-26T19:25:55.278Z,10.77
2017-11-26T19:28:24.350Z,10.78
2017-11-26T19:30:54.657Z,10.76
2017-11-26T19:33:25.572Z,10.76
2017-11-26T19:35:55.405Z,10.69
2017-11-26T19:38:24.985Z,10.66
2017-11-26T19:40:54.340Z,10.69
2017-11-26T19:43:23.651Z,10.59
2017-11-26T19:45:53.649Z,10.59
2017-11-26T19:48:23.785Z,10.59
2017-11-26T19:50:54.002Z,10.54
2017-11-26T19:53:23.412Z,10.52
2017-11-26T19:55:52.846Z,10.50
2017-11-26T19:58:22.044Z,10.53
2017-11-26T20:00:52.991Z,10.45
2017-11-26T20:03:22.133Z,10.49
2017-11-26T20:05:51.326Z,10.43
2017-11-26T20:08:21.548Z,10.42
2017-11-26T20:10:51.935Z,10.38
2017-11-26T20:13:21.345Z,10.34
2017-11-26T20:15:51.420Z,10.35
2017-11-26T20:18:23.628Z,10.36
2017-11-26T20:20:52.864Z,10.33
2017-11-26T20:23:21.925Z,10.34
2017-11-26T20:25:52.839Z,10.28
2017-11-26T20:28:22.725Z,10.23
2017-11-26T20:30:52.541Z,10.23
2017-11-26T20:33:26.510Z,10.34
2017-11-26T20:35:56.263Z,10.37
2017-11-26T20:38:26.381Z,10.44
2017-11-26T20:43:30.948Z,10.45
2017-11-26T20:46:00.330Z,10.43
2017-11-26T20:48:29.972Z,10.41
2017-11-26T20:51:00.085Z,10.41
2017-11-26T20:53:29.167Z,10.34
2017-11-26T20:58:35.049Z,10.36
2017-11-26T21:01:04.111Z,10.36
2017-11-26T21:03:34.027Z,10.37
2017-11-26T21:06:03.959Z,10.33
2017-11-26T21:08:33.196Z,10.24
2017-11-26T21:11:02.290Z,10.25
2017-11-26T21:16:05.504Z,10.20
2017-11-26T21:18:34.801Z,10.18
2017-11-26T21:21:05.646Z,10.13
2017-11-26T21:23:35.606Z,10.10
2017-11-26T21:26:06.634Z,10.09
2017-11-26T21:28:35.885Z,10.07
2017-11-26T21:33:43.247Z,10.02
2017-11-26T21:36:12.438Z,9.99
2017-11-26T21:38:41.713Z,9.97
2017-11-26T21:41:12.303Z,9.97
2017-11-26T21:43:41.552Z,9.96
2017-11-26T21:46:11.672Z,9.91
2017-11-26T21:48:42.151Z,9.85
2017-11-26T21:51:11.294Z,9.84
2017-11-26T21:53:40.482Z,9.88
2017-11-26T21:56:10.454Z,9.89
2017-11-26T21:58:39.374Z,9.89
2017-11-26T22:01:08.400Z,9.87
2017-11-26T22:03:38.572Z,9.83
2017-11-26T22:06:07.685Z,9.80
2017-11-26T22:08:37.751Z,9.80
2017-11-26T22:11:07.840Z,9.79
2017-11-26T22:13:36.935Z,9.77
2017-11-26T22:16:07.764Z,9.81
2017-11-26T22:18:36.923Z,9.78
2017-11-26T22:21:07.167Z,9.79
2017-11-26T22:23:36.956Z,9.84
2017-11-26T22:26:06.043Z,9.82
2017-11-26T22:28:37.239Z,9.85
2017-11-26T22:31:07.114Z,9.93
2017-11-26T22:33:36.248Z,9.88
2017-11-26T22:36:05.551Z,9.91
2017-11-26T22:38:34.647Z,9.89
2017-11-26T22:41:03.691Z,9.89
2017-11-26T22:43:33.878Z,9.92
2017-11-26T22:46:03.348Z,9.91
2017-11-26T22:48:34.212Z,9.90
2017-11-26T22:51:04.151Z,9.90
2017-11-26T22:53:33.215Z,9.88
2017-11-26T22:56:04.776Z,9.92
2017-11-26T22:58:34.165Z,10.00
2017-11-26T23:01:03.376Z,10.01
2017-11-26T23:03:33.466Z,10.00
2017-11-26T23:06:02.545Z,9.94
2017-11-26T23:08:31.595Z,9.96
2017-11-26T23:11:01.554Z,9.92
2017-11-26T23:13:31.404Z,9.89
2017-11-26T23:16:01.211Z,9.92
2017-11-26T23:18:30.948Z,9.98
2017-11-26T23:21:01.784Z,9.99
2017-11-26T23:23:31.186Z,10.08
2017-11-26T23:26:00.175Z,10.12
2017-11-26T23:28:31.195Z,10.15
2017-11-26T23:31:00.312Z,10.13
2017-11-26T23:33:29.303Z,10.21
2017-11-26T23:36:00.184Z,10.32
2017-11-26T23:38:29.287Z,10.45
2017-11-26T23:40:58.997Z,10.49
2017-11-26T23:46:02.296Z,10.61
2017-11-26T23:48:31.356Z,10.66
2017-11-26T23:51:03.081Z,10.78
2017-11-26T23:53:32.106Z,10.86
2017-11-26T23:56:01.096Z,10.94
2017-11-26T23:58:32.122Z,10.96
